Vivian, Louisiana
Current Conditions -  °F | °C
As of 5:53 PM on Sunday 21 Dec 2014 (Local Time) from KDTN Reporting Station
Few Clouds Few Clouds  
Wind Chill: 53°   Ceiling: Unl
Heat Index: 53°   Visibility: 10mi
Dew Point: 43°   Wind: 7mph
Humidity: 69%   Direction: 140°SE
Pressure: 29.92"   Gusts: NA
Location:  32.87°N, 93.99°W
Report Text: KDTN 212353Z 14006KT 10SM FEW033 12/06 A2992 RMK AO2 SLP132 T01170061 10144 20117 58014 $
Loading
Personal Weather Stations






























Interactive Weather Map New forecast layout! Learn more

10-Day Weather Forecast

Advertisements
Track Severe Weather on mobile